createdAt,value
2019-04-23T00:02:51.153Z,17.40
2019-04-23T00:05:33.176Z,17.40
2019-04-23T00:10:29.790Z,17.40
2019-04-23T00:15:46.046Z,17.20
2019-04-23T00:18:12.389Z,17.10
2019-04-23T00:20:42.896Z,17.10
2019-04-23T00:23:14.324Z,17.10
2019-04-23T00:26:02.614Z,17.10
2019-04-23T00:28:35.944Z,17.10
2019-04-23T00:31:15.213Z,17.10
2019-04-23T00:33:37.248Z,17.10
2019-04-23T00:36:17.423Z,17.00
2019-04-23T00:41:33.322Z,17.00
2019-04-23T00:43:52.763Z,17.00
2019-04-23T00:46:15.548Z,16.90
2019-04-23T00:48:55.756Z,17.00
2019-04-23T00:51:20.253Z,17.00
2019-04-23T00:53:51.885Z,16.90
2019-04-23T00:58:57.911Z,16.80
2019-04-23T01:01:32.678Z,16.80
2019-04-23T01:03:53.050Z,16.80
2019-04-23T01:06:24.290Z,16.80
2019-04-23T01:08:55.145Z,16.80
2019-04-23T01:11:26.373Z,16.80
2019-04-23T01:13:57.543Z,16.70
2019-04-23T01:16:28.590Z,16.70
2019-04-23T01:19:06.846Z,16.70
2019-04-23T01:21:28.921Z,16.70
2019-04-23T01:24:34.467Z,16.60
2019-04-23T01:27:39.746Z,16.50
2019-04-23T01:30:08.134Z,16.50
2019-04-23T01:32:34.853Z,16.50
2019-04-23T01:37:36.726Z,16.50
2019-04-23T01:40:07.707Z,16.40
2019-04-23T01:45:07.345Z,16.40
2019-04-23T01:47:39.019Z,16.40
2019-04-23T01:52:45.563Z,16.30
2019-04-23T01:55:14.939Z,16.30
2019-04-23T01:57:46.945Z,16.30
2019-04-23T02:00:19.814Z,16.40
2019-04-23T02:02:52.465Z,16.30
2019-04-23T02:05:22.917Z,16.30
2019-04-23T02:07:53.696Z,16.30
2019-04-23T02:10:22.191Z,16.20
2019-04-23T02:17:52.119Z,16.10
2019-04-23T02:20:33.198Z,16.10
2019-04-23T02:23:21.360Z,16.10
2019-04-23T02:38:31.580Z,16.00
2019-04-23T02:41:31.735Z,15.90
2019-04-23T02:43:24.523Z,15.80
2019-04-23T02:46:02.530Z,15.80
2019-04-23T02:48:48.833Z,15.80
2019-04-23T02:53:44.327Z,15.80
2019-04-23T02:58:34.154Z,15.80
2019-04-23T03:01:22.053Z,15.80
2019-04-23T03:06:05.945Z,15.60
2019-04-23T03:08:45.662Z,15.40
2019-04-23T03:13:48.243Z,15.40
2019-04-23T03:21:56.086Z,15.20
2019-04-23T03:27:23.400Z,15.10
2019-04-23T03:29:51.286Z,15.10
2019-04-23T03:37:23.270Z,15.00
2019-04-23T03:40:00.488Z,15.00
2019-04-23T03:42:24.026Z,15.10
2019-04-23T03:47:24.811Z,14.90
2019-04-23T03:50:02.543Z,14.90
2019-04-23T03:57:24.738Z,14.80
2019-04-23T04:02:54.324Z,14.60
2019-04-23T04:04:53.632Z,14.60
2019-04-23T04:07:44.442Z,14.60
2019-04-23T04:10:00.007Z,14.60
2019-04-23T04:15:33.258Z,14.60
2019-04-23T04:20:09.721Z,14.60
2019-04-23T04:23:00.030Z,14.60
2019-04-23T04:25:08.865Z,14.60
2019-04-23T04:27:48.029Z,14.50
2019-04-23T04:30:16.905Z,14.50
2019-04-23T04:32:51.049Z,14.50
2019-04-23T04:37:55.993Z,14.40
2019-04-23T04:42:41.683Z,14.50
2019-04-23T04:50:35.238Z,14.50
2019-04-23T04:55:21.026Z,14.40
2019-04-23T05:10:32.504Z,14.50
2019-04-23T05:12:59.539Z,14.40
2019-04-23T05:15:23.738Z,14.40
2019-04-23T05:18:22.015Z,14.50
2019-04-23T05:20:46.423Z,14.50
2019-04-23T05:23:26.988Z,14.50
2019-04-23T05:25:47.289Z,14.50
2019-04-23T05:28:12.611Z,14.50
2019-04-23T05:33:17.119Z,14.40
2019-04-23T05:36:08.992Z,14.50
2019-04-23T05:38:29.239Z,14.40
2019-04-23T05:40:53.630Z,14.50
2019-04-23T05:43:19.290Z,14.50
2019-04-23T05:45:46.651Z,14.60
2019-04-23T05:50:58.836Z,15.50
2019-04-23T05:53:30.738Z,15.70
2019-04-23T05:55:58.415Z,15.70
2019-04-23T05:58:28.682Z,16.00
2019-04-23T06:01:42.366Z,16.50
2019-04-23T06:03:58.252Z,16.50
2019-04-23T06:06:29.743Z,16.70
2019-04-23T06:09:01.228Z,16.20
2019-04-23T06:11:36.782Z,16.30
2019-04-23T06:16:36.295Z,16.60
2019-04-23T06:21:38.482Z,17.00
2019-04-23T06:24:09.864Z,17.50
2019-04-23T06:26:40.104Z,16.90
2019-04-23T06:29:05.379Z,16.10
2019-04-23T06:31:41.087Z,15.80
2019-04-23T06:34:20.208Z,15.90
2019-04-23T06:36:47.839Z,16.00
2019-04-23T06:39:23.334Z,16.00
2019-04-23T06:41:50.034Z,15.90
2019-04-23T06:44:24.084Z,15.80
2019-04-23T06:46:56.745Z,16.10
2019-04-23T06:49:27.944Z,16.20
2019-04-23T06:54:35.856Z,16.10
2019-04-23T06:57:08.529Z,16.20
2019-04-23T06:59:34.047Z,16.20
2019-04-23T07:02:10.107Z,16.30
2019-04-23T07:04:43.383Z,16.50
2019-04-23T07:09:34.953Z,16.40
2019-04-23T07:12:10.437Z,16.50
2019-04-23T07:14:47.663Z,16.70
2019-04-23T07:17:08.591Z,16.90
2019-04-23T07:19:42.363Z,17.10
2019-04-23T07:24:41.919Z,16.90
2019-04-23T07:27:13.177Z,16.80
2019-04-23T07:29:48.293Z,16.80
2019-04-23T07:32:11.095Z,16.90
2019-04-23T07:34:49.476Z,17.00
2019-04-23T07:37:18.939Z,17.20
2019-04-23T07:40:21.630Z,17.20
2019-04-23T07:45:17.150Z,17.30
2019-04-23T07:48:12.417Z,17.50
2019-04-23T07:53:31.434Z,17.50
2019-04-23T07:58:22.083Z,17.60
2019-04-23T08:00:57.071Z,17.50
2019-04-23T08:03:27.380Z,17.50
2019-04-23T08:05:42.524Z,17.70
2019-04-23T08:08:21.467Z,17.80
2019-04-23T08:13:47.368Z,18.00
2019-04-23T08:16:21.755Z,18.10
2019-04-23T08:18:48.095Z,17.80
2019-04-23T08:21:24.738Z,18.00
2019-04-23T08:24:05.833Z,18.10
2019-04-23T08:26:50.809Z,18.70
2019-04-23T08:29:24.068Z,18.80
2019-04-23T08:34:30.295Z,18.80
2019-04-23T08:36:58.307Z,18.90
2019-04-23T08:39:37.267Z,18.50
2019-04-23T08:42:23.635Z,18.90
2019-04-23T08:44:56.541Z,19.10
2019-04-23T08:54:52.305Z,19.20
2019-04-23T08:57:25.905Z,19.30
2019-04-23T09:05:00.812Z,18.90
2019-04-23T09:07:27.942Z,19.10
2019-04-23T09:10:07.894Z,19.20
2019-04-23T09:15:01.618Z,19.40
2019-04-23T09:17:34.705Z,19.60
2019-04-23T09:20:18.001Z,18.90
2019-04-23T09:22:34.473Z,18.80
2019-04-23T09:25:18.431Z,19.20
2019-04-23T09:27:42.419Z,19.40
2019-04-23T09:30:09.464Z,19.40
2019-04-23T09:32:43.388Z,20.00
2019-04-23T09:35:30.879Z,19.30
2019-04-23T09:38:39.575Z,19.00
2019-04-23T09:44:23.201Z,19.70
2019-04-23T09:47:03.308Z,19.40
2019-04-23T09:49:26.055Z,19.70
2019-04-23T09:52:02.501Z,19.80
2019-04-23T09:54:32.586Z,19.70
2019-04-23T09:56:52.604Z,20.00
2019-04-23T09:59:38.723Z,20.40
2019-04-23T10:01:51.298Z,20.10
2019-04-23T10:04:19.424Z,20.40
2019-04-23T10:06:39.084Z,20.80
2019-04-23T10:09:12.139Z,21.10
2019-04-23T10:11:41.107Z,20.80
2019-04-23T10:14:10.607Z,20.50
2019-04-23T10:16:41.319Z,20.60
2019-04-23T10:19:12.151Z,20.70
2019-04-23T10:21:41.876Z,20.80
2019-04-23T10:24:12.986Z,21.00
2019-04-23T10:26:43.783Z,21.30
2019-04-23T10:29:18.116Z,21.10
2019-04-23T10:31:47.525Z,21.00
2019-04-23T10:34:17.113Z,21.30
2019-04-23T10:36:47.386Z,20.90
2019-04-23T10:39:23.257Z,21.00
2019-04-23T10:41:48.820Z,21.40
2019-04-23T10:44:52.086Z,21.50
2019-04-23T10:48:24.626Z,21.40
2019-04-23T10:50:50.985Z,21.80
2019-04-23T10:58:25.037Z,21.40
2019-04-23T11:01:02.006Z,21.40
2019-04-23T11:03:42.168Z,20.90
2019-04-23T11:08:31.148Z,21.60
2019-04-23T11:10:58.898Z,21.90
2019-04-23T11:13:50.285Z,21.90
2019-04-23T11:18:53.616Z,21.50
2019-04-23T11:23:56.054Z,22.10
2019-04-23T11:26:26.238Z,22.60
2019-04-23T11:28:45.775Z,22.20
2019-04-23T11:31:31.684Z,22.30
2019-04-23T11:41:38.401Z,23.40
2019-04-23T11:43:55.342Z,23.60
2019-04-23T11:46:48.509Z,23.80
2019-04-23T11:49:22.383Z,23.40
2019-04-23T11:51:46.087Z,23.40
2019-04-23T11:54:07.285Z,24.00
2019-04-23T11:57:07.869Z,24.40
2019-04-23T11:59:12.335Z,24.30
2019-04-23T12:04:51.184Z,24.50
2019-04-23T12:07:22.932Z,24.20
2019-04-23T12:09:53.417Z,24.60
2019-04-23T12:12:29.788Z,24.80
2019-04-23T12:15:07.284Z,24.80
2019-04-23T12:17:32.567Z,25.20
2019-04-23T12:22:43.514Z,23.50
2019-04-23T12:25:19.871Z,24.50
2019-04-23T12:27:33.210Z,24.10
2019-04-23T12:32:48.446Z,24.70
2019-04-23T12:35:19.586Z,24.70
2019-04-23T12:40:40.406Z,25.00
2019-04-23T12:43:15.620Z,24.90
2019-04-23T12:45:43.599Z,24.70
2019-04-23T12:55:51.245Z,24.20
2019-04-23T13:05:48.934Z,23.60
2019-04-23T13:08:41.360Z,24.10
2019-04-23T13:11:02.792Z,24.10
2019-04-23T13:16:03.295Z,24.00
2019-04-23T13:21:07.058Z,23.80
2019-04-23T13:23:34.789Z,23.80
2019-04-23T13:26:17.816Z,24.00
2019-04-23T13:28:45.364Z,23.90
2019-04-23T13:31:18.103Z,23.60
2019-04-23T13:34:07.148Z,23.40
2019-04-23T13:39:10.641Z,23.00
2019-04-23T13:43:47.900Z,23.40
2019-04-23T13:46:23.022Z,23.30
2019-04-23T13:48:55.455Z,23.30
2019-04-23T13:54:13.802Z,23.50
2019-04-23T13:59:29.034Z,23.40
2019-04-23T14:04:36.976Z,23.10
2019-04-23T14:06:55.575Z,23.20
2019-04-23T14:09:37.443Z,23.50
2019-04-23T14:11:51.593Z,23.60
2019-04-23T14:17:15.235Z,23.40
2019-04-23T14:19:31.161Z,23.40
2019-04-23T14:22:20.924Z,23.30
2019-04-23T14:24:46.192Z,23.20
2019-04-23T14:27:08.845Z,23.00
2019-04-23T14:29:43.623Z,22.90
2019-04-23T14:32:24.679Z,23.00
2019-04-23T14:34:43.956Z,23.00
2019-04-23T14:37:14.949Z,23.10
2019-04-23T14:39:40.242Z,23.00
2019-04-23T14:42:21.472Z,22.90
2019-04-23T14:44:52.435Z,23.20
2019-04-23T14:47:25.883Z,23.20
2019-04-23T14:50:15.005Z,23.00
2019-04-23T14:52:30.345Z,22.90
2019-04-23T14:55:35.431Z,22.90
2019-04-23T14:58:00.383Z,22.80
2019-04-23T15:00:03.707Z,23.00
2019-04-23T15:02:37.257Z,23.00
2019-04-23T15:05:09.675Z,23.20
2019-04-23T15:07:37.878Z,23.20
2019-04-23T15:10:23.159Z,23.00
2019-04-23T15:12:39.381Z,23.00
2019-04-23T15:15:18.502Z,23.10
2019-04-23T15:17:40.142Z,23.20
2019-04-23T15:20:14.928Z,23.00
2019-04-23T15:23:02.750Z,23.10
2019-04-23T15:25:30.247Z,22.80
2019-04-23T15:28:05.282Z,22.90
2019-04-23T15:30:09.215Z,22.80
2019-04-23T15:33:05.883Z,22.90
2019-04-23T15:40:30.240Z,23.00
2019-04-23T15:43:02.743Z,23.00
2019-04-23T15:45:28.278Z,22.90
2019-04-23T15:48:04.740Z,23.10
2019-04-23T15:55:36.921Z,23.30
2019-04-23T16:02:40.338Z,23.50
2019-04-23T16:05:12.184Z,23.70
2019-04-23T16:07:54.789Z,23.80
2019-04-23T16:10:52.358Z,23.80
2019-04-23T16:13:13.302Z,24.10
2019-04-23T16:15:46.830Z,24.20
2019-04-23T16:18:29.818Z,24.00
2019-04-23T16:23:28.288Z,23.90
2019-04-23T16:26:05.837Z,23.40
2019-04-23T16:28:27.253Z,23.30
2019-04-23T16:31:03.368Z,23.40
2019-04-23T16:33:35.301Z,24.00
2019-04-23T16:36:11.222Z,24.20
2019-04-23T16:38:50.400Z,24.10
2019-04-23T16:41:12.889Z,24.20
2019-04-23T16:43:45.797Z,24.30
2019-04-23T16:46:11.917Z,24.20
2019-04-23T16:49:06.846Z,24.10
2019-04-23T16:51:24.662Z,24.00
2019-04-23T16:53:46.747Z,23.90
2019-04-23T16:56:56.089Z,23.50
2019-04-23T16:58:54.857Z,23.60
2019-04-23T17:01:12.136Z,23.60
2019-04-23T17:04:00.979Z,23.60
2019-04-23T17:06:27.166Z,23.50
2019-04-23T17:14:00.799Z,22.90
2019-04-23T17:16:32.390Z,23.00
2019-04-23T17:19:07.419Z,22.90
2019-04-23T17:21:32.653Z,22.70
2019-04-23T17:24:12.733Z,22.60
2019-04-23T17:26:29.194Z,22.60
2019-04-23T17:29:09.873Z,22.50
2019-04-23T17:37:21.766Z,22.40
2019-04-23T17:45:32.293Z,22.10
2019-04-23T17:48:12.934Z,22.00
2019-04-23T17:51:00.564Z,21.90
2019-04-23T17:53:26.822Z,21.80
2019-04-23T17:56:16.431Z,21.70
2019-04-23T17:58:31.702Z,21.60
2019-04-23T18:01:11.250Z,21.50
2019-04-23T18:03:41.550Z,21.50
2019-04-23T18:08:33.130Z,21.30
2019-04-23T18:11:12.912Z,21.20
2019-04-23T18:18:48.389Z,21.00
2019-04-23T18:21:23.264Z,20.90
2019-04-23T18:24:23.317Z,20.80
2019-04-23T18:29:42.080Z,20.70
2019-04-23T18:32:15.108Z,20.60
2019-04-23T18:34:56.915Z,20.50
2019-04-23T18:37:11.588Z,20.40
2019-04-23T18:39:46.668Z,20.30
2019-04-23T18:42:24.366Z,20.30
2019-04-23T18:44:52.125Z,20.20
2019-04-23T18:47:26.155Z,20.10
2019-04-23T18:49:45.390Z,20.10
2019-04-23T18:52:25.731Z,20.00
2019-04-23T18:54:50.202Z,20.00
2019-04-23T18:57:12.821Z,19.90
2019-04-23T18:59:50.690Z,19.90
2019-04-23T19:02:53.941Z,19.90
2019-04-23T19:05:30.850Z,19.90
2019-04-23T19:08:20.928Z,19.80
2019-04-23T19:11:28.859Z,19.80
2019-04-23T19:13:45.994Z,19.70
2019-04-23T19:16:15.487Z,19.70
2019-04-23T19:18:56.337Z,19.70
2019-04-23T19:21:47.446Z,19.60
2019-04-23T19:23:50.963Z,19.60
2019-04-23T19:26:45.850Z,19.50
2019-04-23T19:28:56.127Z,19.50
2019-04-23T19:31:49.158Z,19.50
2019-04-23T19:34:23.911Z,19.40
2019-04-23T19:36:54.867Z,19.30
2019-04-23T19:39:24.788Z,19.20
2019-04-23T19:41:57.724Z,19.20
2019-04-23T19:44:16.326Z,19.20
2019-04-23T19:46:57.627Z,19.20
2019-04-23T19:51:56.725Z,19.10
2019-04-23T19:54:44.208Z,19.10
2019-04-23T19:59:37.787Z,19.10
2019-04-23T20:02:00.513Z,19.10
2019-04-23T20:04:28.773Z,19.10
2019-04-23T20:07:12.251Z,19.00
2019-04-23T20:09:43.147Z,18.90
2019-04-23T20:12:01.012Z,18.80
2019-04-23T20:14:42.937Z,18.70
2019-04-23T20:22:06.282Z,18.60
2019-04-23T20:24:52.659Z,18.70
2019-04-23T20:27:11.440Z,18.60
2019-04-23T20:32:05.551Z,18.60
2019-04-23T20:37:59.540Z,18.60
2019-04-23T20:42:37.217Z,18.50
2019-04-23T20:45:04.780Z,18.50
2019-04-23T20:47:44.250Z,18.50
2019-04-23T20:49:58.508Z,18.40
2019-04-23T20:52:37.093Z,18.30
2019-04-23T20:55:08.498Z,18.30
2019-04-23T20:58:07.204Z,18.30
2019-04-23T21:00:59.200Z,18.20
2019-04-23T21:05:50.404Z,18.10
2019-04-23T21:08:41.959Z,18.20
2019-04-23T21:10:48.302Z,18.10
2019-04-23T21:13:42.684Z,18.10
2019-04-23T21:16:12.997Z,18.10
2019-04-23T21:20:56.077Z,18.10
2019-04-23T21:23:28.767Z,18.10
2019-04-23T21:26:00.088Z,18.20
2019-04-23T21:31:11.624Z,18.20
2019-04-23T21:33:59.322Z,18.20
2019-04-23T21:36:35.446Z,18.20
2019-04-23T21:39:51.220Z,18.20
2019-04-23T21:44:40.541Z,18.20
2019-04-23T21:47:09.963Z,18.30
2019-04-23T21:52:12.499Z,18.10
2019-04-23T21:54:49.545Z,18.00
2019-04-23T21:57:14.646Z,17.90
2019-04-23T21:59:50.465Z,18.00
2019-04-23T22:02:36.798Z,17.90
2019-04-23T22:04:52.732Z,17.90
2019-04-23T22:07:17.935Z,17.80
2019-04-23T22:09:55.523Z,17.70
2019-04-23T22:12:22.582Z,17.70
2019-04-23T22:14:50.849Z,17.60
2019-04-23T22:17:25.753Z,17.70
2019-04-23T22:20:03.123Z,17.60
2019-04-23T22:22:29.064Z,17.50
2019-04-23T22:24:57.264Z,17.50
2019-04-23T22:27:24.315Z,17.50
2019-04-23T22:29:59.504Z,17.50
2019-04-23T22:32:45.826Z,17.50
2019-04-23T22:35:07.359Z,17.50
2019-04-23T22:37:36.507Z,17.20
2019-04-23T22:47:39.268Z,17.40
2019-04-23T22:50:05.911Z,17.40
2019-04-23T22:52:43.705Z,17.50
2019-04-23T22:55:27.263Z,17.50
2019-04-23T22:58:04.733Z,17.40
2019-04-23T23:00:14.698Z,17.40
2019-04-23T23:05:56.249Z,17.20
2019-04-23T23:08:13.481Z,17.00
2019-04-23T23:10:44.578Z,17.10
2019-04-23T23:13:15.228Z,17.00
2019-04-23T23:15:50.757Z,16.90
2019-04-23T23:21:05.620Z,17.10
2019-04-23T23:23:52.835Z,17.10
2019-04-23T23:26:09.731Z,17.10
2019-04-23T23:28:40.767Z,17.10
2019-04-23T23:31:16.234Z,17.10
2019-04-23T23:36:12.407Z,17.00
2019-04-23T23:38:50.572Z,17.10
2019-04-23T23:44:07.894Z,17.00
2019-04-23T23:46:35.216Z,17.10
2019-04-23T23:48:49.924Z,16.90
2019-04-23T23:53:58.609Z,16.90
2019-04-23T23:56:19.411Z,16.80
2019-04-23T23:58:56.987Z,16.70
